createdAt,value
2016-10-09T00:00:23.517Z,0
2016-10-09T00:01:23.580Z,0
2016-10-09T00:02:23.636Z,0
2016-10-09T00:03:23.705Z,0
2016-10-09T00:04:23.719Z,0
2016-10-09T00:05:23.800Z,0
2016-10-09T00:06:23.863Z,0
2016-10-09T00:07:23.897Z,0
2016-10-09T00:08:23.961Z,0
2016-10-09T00:09:24.002Z,0
2016-10-09T00:10:24.089Z,0
2016-10-09T00:11:24.129Z,0
2016-10-09T00:12:24.198Z,0
2016-10-09T00:13:24.247Z,0
2016-10-09T00:14:24.284Z,0
2016-10-09T00:15:24.352Z,0
2016-10-09T00:16:24.415Z,0
2016-10-09T00:17:24.487Z,0
2016-10-09T00:18:24.536Z,0
2016-10-09T00:19:24.584Z,0
2016-10-09T00:20:24.634Z,0
2016-10-09T00:21:24.695Z,0
2016-10-09T00:22:24.752Z,0
2016-10-09T00:23:24.787Z,0
2016-10-09T00:24:25.057Z,0
2016-10-09T00:25:25.120Z,0
2016-10-09T00:26:25.163Z,0
2016-10-09T00:27:25.027Z,0
2016-10-09T00:28:25.081Z,0
2016-10-09T00:29:25.159Z,0
2016-10-09T00:30:25.173Z,0
2016-10-09T00:31:25.236Z,0
2016-10-09T00:32:25.306Z,0
2016-10-09T00:33:25.373Z,0
2016-10-09T00:34:25.429Z,0
2016-10-09T00:35:25.479Z,0
2016-10-09T00:36:25.528Z,0
2016-10-09T00:37:25.582Z,0
2016-10-09T00:38:25.660Z,0
2016-10-09T00:39:25.696Z,0
2016-10-09T00:40:25.759Z,0
2016-10-09T00:41:25.812Z,0
2016-10-09T00:42:25.870Z,0
2016-10-09T00:43:25.927Z,0
2016-10-09T00:44:25.981Z,0
2016-10-09T00:45:26.046Z,0
2016-10-09T00:46:26.105Z,0
2016-10-09T00:47:26.157Z,0
2016-10-09T00:48:26.196Z,0
2016-10-09T00:49:26.256Z,0
2016-10-09T00:50:26.301Z,0
2016-10-09T00:51:26.361Z,0
2016-10-09T00:52:26.622Z,0
2016-10-09T00:53:26.501Z,0
2016-10-09T00:54:26.740Z,0
2016-10-09T00:55:26.584Z,0
2016-10-09T00:56:26.639Z,0
2016-10-09T00:57:26.689Z,0
2016-10-09T00:58:26.781Z,0
2016-10-09T00:59:26.821Z,0
2016-10-09T01:00:26.887Z,0
2016-10-09T01:01:26.930Z,0
2016-10-09T01:02:26.992Z,0
2016-10-09T01:03:27.043Z,0
2016-10-09T01:04:27.100Z,0
2016-10-09T01:05:27.162Z,0
2016-10-09T01:06:27.227Z,0
2016-10-09T01:07:27.268Z,0
2016-10-09T01:08:27.304Z,0
2016-10-09T01:09:27.379Z,0
2016-10-09T01:10:27.422Z,0
2016-10-09T01:11:27.485Z,0
2016-10-09T01:12:27.533Z,0
2016-10-09T01:13:27.589Z,0
2016-10-09T01:14:27.663Z,0
2016-10-09T01:15:27.729Z,0
2016-10-09T01:16:27.788Z,0
2016-10-09T01:17:27.817Z,0
2016-10-09T01:18:27.895Z,0
2016-10-09T01:19:27.934Z,0
2016-10-09T01:20:27.991Z,0
2016-10-09T01:21:28.223Z,0
2016-10-09T01:22:28.312Z,0
2016-10-09T01:23:28.180Z,0
2016-10-09T01:24:28.213Z,0
2016-10-09T01:25:28.292Z,0
2016-10-09T01:26:28.316Z,0
2016-10-09T01:27:28.389Z,0
2016-10-09T01:28:28.430Z,0
2016-10-09T01:29:28.488Z,0
2016-10-09T01:30:28.557Z,0
2016-10-09T01:31:28.607Z,0
2016-10-09T01:32:28.663Z,0
2016-10-09T01:33:28.723Z,0
2016-10-09T01:34:28.782Z,0
2016-10-09T01:35:28.837Z,0
2016-10-09T01:36:28.888Z,0
2016-10-09T01:37:28.961Z,0
2016-10-09T01:38:29.020Z,0
2016-10-09T01:39:29.037Z,0
2016-10-09T01:40:29.116Z,0
2016-10-09T01:41:29.163Z,0
2016-10-09T01:42:29.230Z,0
2016-10-09T01:43:29.286Z,0
2016-10-09T01:44:29.356Z,0
2016-10-09T01:45:29.581Z,0
2016-10-09T01:46:29.434Z,0
2016-10-09T01:47:29.500Z,0
2016-10-09T01:48:29.583Z,0
2016-10-09T01:49:29.606Z,0
2016-10-09T01:50:29.661Z,0
2016-10-09T01:51:29.713Z,0
2016-10-09T01:52:29.779Z,0
2016-10-09T01:53:29.831Z,0
2016-10-09T01:54:29.907Z,0
2016-10-09T01:55:29.932Z,0
2016-10-09T01:56:30.025Z,0
2016-10-09T01:57:30.061Z,0
2016-10-09T01:58:30.117Z,0
2016-10-09T01:59:30.180Z,0
2016-10-09T02:00:30.235Z,0
2016-10-09T02:01:30.275Z,0
2016-10-09T02:02:30.348Z,0
2016-10-09T02:03:30.420Z,0
2016-10-09T02:04:30.458Z,0
2016-10-09T02:05:30.499Z,0
2016-10-09T02:06:30.581Z,0
2016-10-09T02:07:30.601Z,0
2016-10-09T02:08:30.663Z,0
2016-10-09T02:09:30.737Z,0
2016-10-09T02:10:30.788Z,0
2016-10-09T02:11:30.828Z,0
2016-10-09T02:12:30.897Z,0
2016-10-09T02:13:30.960Z,0
2016-10-09T02:14:31.023Z,0
2016-10-09T02:15:31.050Z,0
2016-10-09T02:16:31.142Z,0
2016-10-09T02:17:31.168Z,0
2016-10-09T02:18:31.216Z,0
2016-10-09T02:19:31.291Z,0
2016-10-09T02:20:31.362Z,0
2016-10-09T02:21:31.391Z,0
2016-10-09T02:22:31.452Z,0
2016-10-09T02:23:31.517Z,0
2016-10-09T02:24:31.572Z,0
2016-10-09T02:25:31.632Z,0
2016-10-09T02:26:31.677Z,0
2016-10-09T02:27:31.735Z,0
2016-10-09T02:28:31.796Z,0
2016-10-09T02:29:31.834Z,0
2016-10-09T02:30:31.923Z,0
2016-10-09T02:31:31.942Z,0
2016-10-09T02:32:32.013Z,0
2016-10-09T02:33:32.090Z,0
2016-10-09T02:34:32.117Z,0
2016-10-09T02:35:32.189Z,0
2016-10-09T02:36:32.236Z,0
2016-10-09T02:37:32.294Z,0
2016-10-09T02:38:32.336Z,0
2016-10-09T02:39:32.412Z,0
2016-10-09T02:40:32.462Z,0
2016-10-09T02:41:32.516Z,0
2016-10-09T02:42:32.586Z,0
2016-10-09T02:43:32.627Z,0
2016-10-09T02:44:32.671Z,0
2016-10-09T02:45:32.728Z,0
2016-10-09T02:46:32.795Z,0
2016-10-09T02:47:32.858Z,0
2016-10-09T02:48:32.923Z,0
2016-10-09T02:49:32.972Z,0
2016-10-09T02:50:33.033Z,0
2016-10-09T02:51:33.103Z,0
2016-10-09T02:52:33.139Z,0
2016-10-09T02:53:33.198Z,0
2016-10-09T02:54:33.235Z,0
2016-10-09T02:55:33.312Z,0
2016-10-09T02:56:33.337Z,0
2016-10-09T02:57:33.403Z,0
2016-10-09T02:58:33.473Z,0
2016-10-09T02:59:33.517Z,0
2016-10-09T03:00:33.599Z,0
2016-10-09T03:01:33.646Z,0
2016-10-09T03:02:33.687Z,0
2016-10-09T03:03:33.765Z,0
2016-10-09T03:04:33.798Z,0
2016-10-09T03:05:33.866Z,0
2016-10-09T03:06:33.923Z,0
2016-10-09T03:07:33.985Z,0
2016-10-09T03:08:34.043Z,0
2016-10-09T03:09:34.082Z,0
2016-10-09T03:10:34.151Z,0
2016-10-09T03:11:34.201Z,0
2016-10-09T03:12:34.256Z,0
2016-10-09T03:13:34.305Z,0
2016-10-09T03:14:34.344Z,0
2016-10-09T03:15:34.423Z,0
2016-10-09T03:16:34.458Z,0
2016-10-09T03:17:34.532Z,0
2016-10-09T03:18:34.591Z,0
2016-10-09T03:19:34.630Z,0
2016-10-09T03:20:34.716Z,0
2016-10-09T03:21:34.749Z,0
2016-10-09T03:22:34.815Z,0
2016-10-09T03:23:34.849Z,0
2016-10-09T03:24:34.939Z,0
2016-10-09T03:25:34.961Z,0
2016-10-09T03:26:35.044Z,0
2016-10-09T03:27:35.078Z,0
2016-10-09T03:28:35.148Z,0
2016-10-09T03:29:35.206Z,0
2016-10-09T03:30:35.259Z,0
2016-10-09T03:31:35.295Z,0
2016-10-09T03:32:35.378Z,0
2016-10-09T03:33:35.425Z,0
2016-10-09T03:34:35.494Z,0
2016-10-09T03:35:35.554Z,0
2016-10-09T03:36:35.908Z,0
2016-10-09T03:37:35.651Z,0
2016-10-09T03:38:35.696Z,0
2016-10-09T03:39:35.763Z,0
2016-10-09T03:40:35.809Z,0
2016-10-09T03:41:35.871Z,0
2016-10-09T03:42:35.931Z,0
2016-10-09T03:43:35.998Z,0
2016-10-09T03:44:36.042Z,0
2016-10-09T03:45:36.088Z,0
2016-10-09T03:46:36.131Z,0
2016-10-09T03:47:36.200Z,0
2016-10-09T03:48:36.263Z,0
2016-10-09T03:49:36.317Z,0
2016-10-09T03:50:36.388Z,0
2016-10-09T03:51:36.407Z,0
2016-10-09T03:52:36.487Z,0
2016-10-09T03:53:36.523Z,0
2016-10-09T03:54:36.602Z,0
2016-10-09T03:55:36.659Z,0
2016-10-09T03:56:36.723Z,0
2016-10-09T03:57:36.746Z,0
2016-10-09T03:58:36.807Z,0
2016-10-09T03:59:36.854Z,0
2016-10-09T04:00:36.940Z,0
2016-10-09T04:01:36.981Z,0
2016-10-09T04:02:37.056Z,0
2016-10-09T04:03:37.106Z,0
2016-10-09T04:04:37.149Z,0
2016-10-09T04:05:37.537Z,0
2016-10-09T04:06:37.295Z,0
2016-10-09T04:07:37.307Z,0
2016-10-09T04:08:37.380Z,0
2016-10-09T04:09:37.432Z,0
2016-10-09T04:10:37.490Z,0
2016-10-09T04:11:37.523Z,0
2016-10-09T04:12:37.596Z,0
2016-10-09T04:13:37.669Z,0
2016-10-09T04:14:37.694Z,0
2016-10-09T04:15:37.764Z,0
2016-10-09T04:16:38.104Z,0
2016-10-09T04:17:37.878Z,0
2016-10-09T04:18:37.928Z,0
2016-10-09T04:19:37.991Z,0
2016-10-09T04:20:38.025Z,0
2016-10-09T04:21:38.086Z,0
2016-10-09T04:22:38.164Z,0
2016-10-09T04:23:38.228Z,0
2016-10-09T04:24:38.248Z,0
2016-10-09T04:25:38.311Z,0
2016-10-09T04:26:38.369Z,0
2016-10-09T04:27:38.435Z,0
2016-10-09T04:28:38.491Z,0
2016-10-09T04:29:38.534Z,0
2016-10-09T04:30:38.603Z,0
2016-10-09T04:31:38.668Z,0
2016-10-09T04:32:38.701Z,0
2016-10-09T04:33:38.771Z,0
2016-10-09T04:34:38.841Z,0
2016-10-09T04:35:38.876Z,0
2016-10-09T04:36:38.937Z,0
2016-10-09T04:37:39.003Z,0
2016-10-09T04:38:39.050Z,0
2016-10-09T04:39:39.082Z,0
2016-10-09T04:40:39.164Z,0
2016-10-09T04:41:39.217Z,0
2016-10-09T04:42:39.259Z,0
2016-10-09T04:43:39.313Z,0
2016-10-09T04:44:39.386Z,0
2016-10-09T04:45:39.442Z,0
2016-10-09T04:46:39.482Z,0
2016-10-09T04:47:39.532Z,0
2016-10-09T04:48:39.588Z,0
2016-10-09T04:49:39.655Z,0
2016-10-09T04:50:39.733Z,0
2016-10-09T04:51:39.758Z,0
2016-10-09T04:52:39.832Z,0
2016-10-09T04:53:39.873Z,0
2016-10-09T04:54:39.950Z,0
2016-10-09T04:55:39.998Z,0
2016-10-09T04:56:40.061Z,0
2016-10-09T04:57:40.103Z,0
2016-10-09T04:58:40.462Z,0
2016-10-09T04:59:40.206Z,0
2016-10-09T05:00:40.263Z,0
2016-10-09T05:01:40.324Z,0
2016-10-09T05:02:40.388Z,0
2016-10-09T05:03:40.457Z,0
2016-10-09T05:04:40.490Z,0
2016-10-09T05:05:40.547Z,4
2016-10-09T05:06:40.624Z,4
2016-10-09T05:07:40.660Z,4
2016-10-09T05:08:40.723Z,0
2016-10-09T05:09:40.778Z,4
2016-10-09T05:10:40.847Z,4
2016-10-09T05:11:40.902Z,8
2016-10-09T05:12:40.951Z,4
2016-10-09T05:13:40.989Z,8
2016-10-09T05:14:41.055Z,8
2016-10-09T05:15:41.086Z,8
2016-10-09T05:16:41.146Z,12
2016-10-09T05:17:41.206Z,12
2016-10-09T05:18:41.272Z,16
2016-10-09T05:19:41.334Z,16
2016-10-09T05:20:41.393Z,20
2016-10-09T05:21:41.424Z,24
2016-10-09T05:22:41.495Z,24
2016-10-09T05:23:41.535Z,24
2016-10-09T05:24:41.614Z,32
2016-10-09T05:25:41.669Z,32
2016-10-09T05:26:41.715Z,36
2016-10-09T05:27:41.767Z,40
2016-10-09T05:28:41.823Z,44
2016-10-09T05:29:41.891Z,52
2016-10-09T05:30:41.929Z,56
2016-10-09T05:31:41.995Z,64
2016-10-09T05:32:42.045Z,60
2016-10-09T05:33:42.123Z,64
2016-10-09T05:34:42.175Z,68
2016-10-09T05:35:42.241Z,72
2016-10-09T05:36:42.267Z,80
2016-10-09T05:37:42.332Z,84
2016-10-09T05:38:42.378Z,88
2016-10-09T05:39:42.470Z,92
2016-10-09T05:40:42.506Z,100
2016-10-09T05:41:42.574Z,112
2016-10-09T05:42:42.594Z,120
2016-10-09T05:43:42.652Z,128
2016-10-09T05:44:42.725Z,144
2016-10-09T05:45:42.773Z,144
2016-10-09T05:46:42.839Z,148
2016-10-09T05:47:42.911Z,164
2016-10-09T05:48:42.941Z,176
2016-10-09T05:49:42.994Z,176
2016-10-09T05:50:43.052Z,176
2016-10-09T05:51:43.126Z,180
2016-10-09T05:52:43.188Z,184
2016-10-09T05:53:43.231Z,184
2016-10-09T05:54:43.281Z,192
2016-10-09T05:55:43.330Z,200
2016-10-09T05:56:43.402Z,216
2016-10-09T05:57:43.433Z,228
2016-10-09T05:58:43.518Z,252
2016-10-09T05:59:43.571Z,288
2016-10-09T06:00:43.942Z,312
2016-10-09T06:01:43.656Z,328
2016-10-09T06:02:43.721Z,340
2016-10-09T06:03:43.786Z,368
2016-10-09T06:04:43.850Z,384
2016-10-09T06:05:43.884Z,416
2016-10-09T06:06:43.935Z,448
2016-10-09T06:07:44.015Z,536
2016-10-09T06:08:44.061Z,540
2016-10-09T06:09:44.120Z,524
2016-10-09T06:10:44.178Z,524
2016-10-09T06:11:44.222Z,496
2016-10-09T06:12:44.285Z,532
2016-10-09T06:13:44.360Z,516
2016-10-09T06:14:44.401Z,516
2016-10-09T06:15:44.449Z,520
2016-10-09T06:16:44.498Z,512
2016-10-09T06:17:44.562Z,508
2016-10-09T06:18:44.632Z,504
2016-10-09T06:19:44.692Z,524
2016-10-09T06:20:44.751Z,516
2016-10-09T06:21:44.776Z,496
2016-10-09T06:22:44.858Z,492
2016-10-09T06:23:44.890Z,512
2016-10-09T06:24:44.937Z,524
2016-10-09T06:25:45.014Z,544
2016-10-09T06:26:45.064Z,568
2016-10-09T06:27:45.133Z,620
2016-10-09T06:28:45.177Z,620
2016-10-09T06:29:45.252Z,640
2016-10-09T06:30:45.300Z,656
2016-10-09T06:31:45.343Z,672
2016-10-09T06:32:45.404Z,708
2016-10-09T06:33:45.446Z,732
2016-10-09T06:34:45.533Z,756
2016-10-09T06:35:45.564Z,744
2016-10-09T06:36:45.627Z,792
2016-10-09T06:37:45.677Z,1044
2016-10-09T06:38:45.738Z,1044
2016-10-09T06:39:45.801Z,876
2016-10-09T06:40:45.838Z,992
2016-10-09T06:41:45.913Z,1240
2016-10-09T06:42:45.945Z,1288
2016-10-09T06:43:46.018Z,1140
2016-10-09T06:44:46.064Z,968
2016-10-09T06:45:46.137Z,972
2016-10-09T06:46:46.196Z,988
2016-10-09T06:47:46.241Z,1004
2016-10-09T06:48:46.308Z,1016
2016-10-09T06:49:46.338Z,1048
2016-10-09T06:50:46.413Z,1044
2016-10-09T06:51:46.458Z,1080
2016-10-09T06:52:46.526Z,1116
2016-10-09T06:53:46.583Z,1132
2016-10-09T06:54:46.643Z,1136
2016-10-09T06:55:46.673Z,1144
2016-10-09T06:56:46.744Z,1196
2016-10-09T06:57:46.791Z,1176
2016-10-09T06:58:46.844Z,1236
2016-10-09T06:59:46.924Z,1272
2016-10-09T07:00:46.942Z,1316
2016-10-09T07:01:47.015Z,1272
2016-10-09T07:02:47.085Z,1300
2016-10-09T07:03:47.127Z,1292
2016-10-09T07:04:47.167Z,1368
2016-10-09T07:05:47.246Z,1424
2016-10-09T07:06:47.290Z,1472
2016-10-09T07:07:47.357Z,1476
2016-10-09T07:08:47.409Z,1364
2016-10-09T07:09:47.455Z,1252
2016-10-09T07:10:47.509Z,1180
2016-10-09T07:11:47.580Z,1080
2016-10-09T07:12:47.641Z,1100
2016-10-09T07:13:47.679Z,1192
2016-10-09T07:14:47.725Z,1172
2016-10-09T07:15:47.804Z,1172
2016-10-09T07:16:47.864Z,1176
2016-10-09T07:17:47.896Z,1020
2016-10-09T07:18:47.983Z,920
2016-10-09T07:19:48.027Z,952
2016-10-09T07:20:48.059Z,1076
2016-10-09T07:21:48.135Z,1240
2016-10-09T07:22:48.207Z,1200
2016-10-09T07:23:48.258Z,1496
2016-10-09T07:24:48.296Z,1464
2016-10-09T07:25:48.355Z,1676
2016-10-09T07:26:48.411Z,1968
2016-10-09T07:27:48.474Z,1948
2016-10-09T07:28:48.506Z,1644
2016-10-09T07:29:48.580Z,1564
2016-10-09T07:30:48.619Z,1632
2016-10-09T07:31:48.711Z,1632
2016-10-09T07:32:48.738Z,1632
2016-10-09T07:33:49.090Z,1628
2016-10-09T07:34:48.856Z,1728
2016-10-09T07:35:48.899Z,1784
2016-10-09T07:36:48.973Z,1764
2016-10-09T07:37:49.024Z,1740
2016-10-09T07:38:49.094Z,1672
2016-10-09T07:39:49.158Z,1616
2016-10-09T07:40:49.206Z,1648
2016-10-09T07:41:49.261Z,1652
2016-10-09T07:42:49.302Z,1680
2016-10-09T07:43:49.382Z,1668
2016-10-09T07:44:49.415Z,1616
2016-10-09T07:45:49.473Z,1596
2016-10-09T07:46:49.536Z,1608
2016-10-09T07:47:49.599Z,1628
2016-10-09T07:48:49.627Z,1676
2016-10-09T07:49:49.697Z,1748
2016-10-09T07:50:49.745Z,1872
2016-10-09T07:51:49.823Z,1884
2016-10-09T07:52:50.050Z,1832
2016-10-09T07:53:49.928Z,1756
2016-10-09T07:54:49.977Z,1748
2016-10-09T07:55:50.054Z,1784
2016-10-09T07:56:50.086Z,1840
2016-10-09T07:57:50.139Z,1860
2016-10-09T07:58:50.207Z,1808
2016-10-09T07:59:50.263Z,1864
2016-10-09T08:00:50.310Z,1904
2016-10-09T08:01:50.388Z,1956
2016-10-09T08:02:50.417Z,2028
2016-10-09T08:03:50.494Z,2132
2016-10-09T08:04:50.523Z,2260
2016-10-09T08:05:50.585Z,2380
2016-10-09T08:06:50.671Z,2500
2016-10-09T08:07:50.711Z,2652
2016-10-09T08:08:50.761Z,2788
2016-10-09T08:09:50.824Z,2824
2016-10-09T08:10:50.863Z,2900
2016-10-09T08:11:50.944Z,2852
2016-10-09T08:12:50.975Z,2820
2016-10-09T08:13:51.029Z,2780
2016-10-09T08:14:51.103Z,2824
2016-10-09T08:15:51.160Z,2692
2016-10-09T08:16:51.208Z,2620
2016-10-09T08:17:51.280Z,2580
2016-10-09T08:18:51.319Z,2676
2016-10-09T08:19:51.402Z,2936
2016-10-09T08:20:51.433Z,2984
2016-10-09T08:21:51.481Z,2492
2016-10-09T08:22:51.543Z,2148
2016-10-09T08:23:51.602Z,2112
2016-10-09T08:24:51.657Z,1708
2016-10-09T08:25:52.030Z,2576
2016-10-09T08:26:51.790Z,2344
2016-10-09T08:27:51.834Z,2292
2016-10-09T08:28:51.873Z,2412
2016-10-09T08:29:51.959Z,2456
2016-10-09T08:30:52.000Z,2480
2016-10-09T08:31:52.052Z,2620
2016-10-09T08:32:52.122Z,2728
2016-10-09T08:33:52.176Z,3124
2016-10-09T08:34:52.212Z,2944
2016-10-09T08:35:52.264Z,2980
2016-10-09T08:36:52.352Z,2992
2016-10-09T08:37:52.379Z,3208
2016-10-09T08:38:52.463Z,3144
2016-10-09T08:39:52.510Z,3164
2016-10-09T08:40:52.577Z,3272
2016-10-09T08:41:52.629Z,3376
2016-10-09T08:42:52.668Z,3432
2016-10-09T08:43:52.729Z,3196
2016-10-09T08:44:52.782Z,3400
2016-10-09T08:45:52.833Z,3572
2016-10-09T08:46:52.893Z,3772
2016-10-09T08:47:52.947Z,3780
2016-10-09T08:48:52.995Z,4292
2016-10-09T08:49:53.060Z,4056
2016-10-09T08:50:53.141Z,4024
2016-10-09T08:51:53.182Z,3888
2016-10-09T08:52:53.232Z,4052
2016-10-09T08:53:53.287Z,3548
2016-10-09T08:54:53.337Z,3548
2016-10-09T08:55:53.383Z,3656
2016-10-09T08:56:53.464Z,3728
2016-10-09T08:57:53.516Z,3196
2016-10-09T08:58:53.573Z,3024
2016-10-09T08:59:53.636Z,2952
2016-10-09T09:00:53.694Z,2756
2016-10-09T09:01:53.730Z,2644
2016-10-09T09:02:53.778Z,2496
2016-10-09T09:03:53.848Z,2280
2016-10-09T09:04:53.903Z,2344
2016-10-09T09:05:53.938Z,2368
2016-10-09T09:06:54.028Z,2208
2016-10-09T09:07:54.079Z,2392
2016-10-09T09:08:54.126Z,2636
2016-10-09T09:09:54.178Z,2800
2016-10-09T09:10:54.216Z,2872
2016-10-09T09:11:54.305Z,3016
2016-10-09T09:12:54.369Z,3484
2016-10-09T09:13:54.402Z,3748
2016-10-09T09:14:54.463Z,3732
2016-10-09T09:15:54.498Z,3612
2016-10-09T09:16:54.584Z,3596
2016-10-09T09:17:54.631Z,3796
2016-10-09T09:18:54.702Z,4012
2016-10-09T09:19:54.729Z,4076
2016-10-09T09:20:54.793Z,4224
2016-10-09T09:21:54.848Z,4084
2016-10-09T09:22:54.919Z,3792
2016-10-09T09:23:54.961Z,3788
2016-10-09T09:24:55.034Z,3940
2016-10-09T09:25:55.078Z,3880
2016-10-09T09:26:55.126Z,3676
2016-10-09T09:27:55.186Z,4072
2016-10-09T09:28:55.240Z,4656
2016-10-09T09:29:55.284Z,4284
2016-10-09T09:30:55.375Z,4252
2016-10-09T09:31:55.398Z,4024
2016-10-09T09:32:55.487Z,3496
2016-10-09T09:33:55.543Z,3324
2016-10-09T09:34:55.564Z,3328
2016-10-09T09:35:55.642Z,4028
2016-10-09T09:36:55.697Z,4084
2016-10-09T09:37:55.756Z,3496
2016-10-09T09:38:55.823Z,3704
2016-10-09T09:39:55.855Z,3540
2016-10-09T09:40:55.923Z,3088
2016-10-09T09:41:55.982Z,2824
2016-10-09T09:42:56.039Z,2884
2016-10-09T09:43:56.078Z,2992
2016-10-09T09:44:56.242Z,3336
2016-10-09T09:45:56.208Z,4100
2016-10-09T09:46:56.238Z,5060
2016-10-09T09:47:56.315Z,5212
2016-10-09T09:48:56.351Z,5436
2016-10-09T09:49:56.429Z,5156
2016-10-09T09:50:56.490Z,3880
2016-10-09T09:51:56.552Z,3528
2016-10-09T09:52:56.589Z,3292
2016-10-09T09:53:56.643Z,4468
2016-10-09T09:54:56.705Z,4336
2016-10-09T09:55:56.748Z,5404
2016-10-09T09:56:56.825Z,6920
2016-10-09T09:57:56.869Z,6260
2016-10-09T09:58:56.919Z,4920
2016-10-09T09:59:56.993Z,4772
2016-10-09T10:00:57.030Z,5624
2016-10-09T10:01:57.112Z,5180
2016-10-09T10:02:57.147Z,3812
2016-10-09T10:03:57.212Z,4608
2016-10-09T10:04:57.272Z,4924
2016-10-09T10:05:57.330Z,6072
2016-10-09T10:06:57.369Z,5148
2016-10-09T10:07:57.415Z,5492
2016-10-09T10:08:57.504Z,6140
2016-10-09T10:09:57.563Z,5480
2016-10-09T10:10:57.606Z,5940
2016-10-09T10:11:57.669Z,5924
2016-10-09T10:12:57.714Z,5372
2016-10-09T10:13:57.787Z,6896
2016-10-09T10:14:57.816Z,6452
2016-10-09T10:15:57.893Z,6504
2016-10-09T10:16:57.929Z,6808
2016-10-09T10:17:58.000Z,6572
2016-10-09T10:18:58.039Z,7000
2016-10-09T10:19:58.091Z,6272
2016-10-09T10:20:58.163Z,6628
2016-10-09T10:21:58.216Z,6764
2016-10-09T10:22:58.287Z,7508
2016-10-09T10:23:58.323Z,7024
2016-10-09T10:24:58.373Z,6460
2016-10-09T10:25:58.435Z,6652
2016-10-09T10:26:58.493Z,4896
2016-10-09T10:27:58.550Z,4616
2016-10-09T10:28:58.618Z,5344
2016-10-09T10:29:58.654Z,5880
2016-10-09T10:30:58.746Z,6724
2016-10-09T10:31:58.846Z,6408
2016-10-09T10:32:59.170Z,7996
2016-10-09T10:33:58.892Z,6780
2016-10-09T10:34:58.951Z,7548
2016-10-09T10:35:59.014Z,7412
2016-10-09T10:36:59.066Z,6092
2016-10-09T10:37:59.418Z,6732
2016-10-09T10:38:59.172Z,6688
2016-10-09T10:39:59.543Z,8544
2016-10-09T10:40:59.310Z,8704
2016-10-09T10:41:59.349Z,6952
2016-10-09T10:42:59.427Z,7852
2016-10-09T10:43:59.458Z,7328
2016-10-09T10:44:59.538Z,7380
2016-10-09T10:45:59.579Z,6912
2016-10-09T10:46:59.640Z,8564
2016-10-09T10:47:59.698Z,8056
2016-10-09T10:48:59.754Z,7520
2016-10-09T10:49:59.783Z,3768
2016-10-09T10:51:00.058Z,2880
2016-10-09T10:51:59.917Z,2976
2016-10-09T10:52:59.994Z,3396
2016-10-09T10:54:00.026Z,3968
2016-10-09T10:55:00.126Z,4476
2016-10-09T10:56:00.142Z,5912
2016-10-09T10:57:00.215Z,3744
2016-10-09T10:58:00.256Z,5660
2016-10-09T10:59:00.617Z,6192
2016-10-09T11:00:00.366Z,3196
2016-10-09T11:01:00.444Z,2828
2016-10-09T11:02:00.464Z,2892
2016-10-09T11:03:00.520Z,2852
2016-10-09T11:04:00.895Z,2592
2016-10-09T11:05:00.671Z,2732
2016-10-09T11:06:00.703Z,3440
2016-10-09T11:07:00.774Z,4084
2016-10-09T11:08:00.824Z,9384
2016-10-09T11:09:00.889Z,5240
2016-10-09T11:10:00.951Z,2688
2016-10-09T11:11:00.994Z,2544
2016-10-09T11:12:01.031Z,2340
2016-10-09T11:13:01.090Z,2180
2016-10-09T11:14:01.153Z,2052
2016-10-09T11:15:01.521Z,1880
2016-10-09T11:16:01.269Z,1964
2016-10-09T11:17:01.334Z,2092
2016-10-09T11:18:01.376Z,2176
2016-10-09T11:19:01.446Z,2188
2016-10-09T11:20:01.497Z,2196
2016-10-09T11:21:01.570Z,2296
2016-10-09T11:22:01.615Z,2464
2016-10-09T11:23:01.677Z,2736
2016-10-09T11:24:01.742Z,3536
2016-10-09T11:25:01.783Z,4292
2016-10-09T11:26:01.819Z,3196
2016-10-09T11:27:01.898Z,4836
2016-10-09T11:28:01.942Z,4704
2016-10-09T11:29:02.020Z,4924
2016-10-09T11:30:02.050Z,5504
2016-10-09T11:31:02.113Z,4324
2016-10-09T11:32:02.179Z,3724
2016-10-09T11:33:02.239Z,4316
2016-10-09T11:34:02.304Z,12872
2016-10-09T11:35:02.326Z,5144
2016-10-09T11:36:02.402Z,4964
2016-10-09T11:37:02.450Z,3472
2016-10-09T11:38:02.516Z,3176
2016-10-09T11:39:02.574Z,3736
2016-10-09T11:40:02.631Z,3036
2016-10-09T11:41:02.667Z,3024
2016-10-09T11:42:02.792Z,2992
2016-10-09T11:43:02.820Z,2928
2016-10-09T11:44:02.845Z,3396
2016-10-09T11:45:02.909Z,3296
2016-10-09T11:46:02.969Z,2592
2016-10-09T11:47:03.163Z,2168
2016-10-09T11:48:03.068Z,1976
2016-10-09T11:49:03.139Z,1868
2016-10-09T11:50:03.189Z,1876
2016-10-09T11:51:03.224Z,1984
2016-10-09T11:52:03.308Z,1992
2016-10-09T11:53:03.350Z,1904
2016-10-09T11:54:03.409Z,1808
2016-10-09T11:55:03.450Z,1792
2016-10-09T11:56:03.509Z,1820
2016-10-09T11:57:03.573Z,1856
2016-10-09T11:58:03.629Z,1816
2016-10-09T11:59:03.701Z,1792
2016-10-09T12:00:03.742Z,1800
2016-10-09T12:01:03.813Z,1780
2016-10-09T12:02:03.842Z,1792
2016-10-09T12:03:03.937Z,1788
2016-10-09T12:04:03.968Z,1764
2016-10-09T12:05:04.029Z,1744
2016-10-09T12:06:04.068Z,1824
2016-10-09T12:07:04.128Z,1912
2016-10-09T12:08:04.176Z,1904
2016-10-09T12:09:04.269Z,1916
2016-10-09T12:10:04.319Z,1976
2016-10-09T12:11:04.361Z,2172
2016-10-09T12:12:04.400Z,2212
2016-10-09T12:13:04.456Z,2280
2016-10-09T12:14:04.540Z,2472
2016-10-09T12:15:04.607Z,2632
2016-10-09T12:16:04.659Z,2704
2016-10-09T12:17:04.735Z,2424
2016-10-09T12:18:04.767Z,2016
2016-10-09T12:19:04.817Z,1716
2016-10-09T12:20:04.856Z,1728
2016-10-09T12:21:04.947Z,1788
2016-10-09T12:22:04.993Z,1624
2016-10-09T12:23:05.079Z,1452
2016-10-09T12:24:05.088Z,1428
2016-10-09T12:25:05.164Z,1504
2016-10-09T12:26:05.210Z,1564
2016-10-09T12:27:05.260Z,1664
2016-10-09T12:28:05.423Z,1868
2016-10-09T12:29:05.375Z,2188
2016-10-09T12:30:05.450Z,2352
2016-10-09T12:31:05.486Z,2352
2016-10-09T12:32:05.565Z,2496
2016-10-09T12:33:05.597Z,2392
2016-10-09T12:34:05.669Z,2192
2016-10-09T12:35:05.731Z,1948
2016-10-09T12:36:05.775Z,1816
2016-10-09T12:37:05.840Z,1960
2016-10-09T12:38:05.894Z,2008
2016-10-09T12:39:05.933Z,1924
2016-10-09T12:40:06.016Z,1888
2016-10-09T12:41:06.276Z,1912
2016-10-09T12:42:06.128Z,1864
2016-10-09T12:43:21.082Z,2020
2016-10-09T12:44:06.206Z,2072
2016-10-09T12:45:06.278Z,2192
2016-10-09T12:46:06.334Z,2260
2016-10-09T12:47:06.395Z,2216
2016-10-09T12:48:06.448Z,2172
2016-10-09T12:49:06.526Z,2136
2016-10-09T12:50:06.577Z,2164
2016-10-09T12:51:06.618Z,2212
2016-10-09T12:52:06.681Z,2248
2016-10-09T12:53:06.746Z,2076
2016-10-09T12:54:06.787Z,1988
2016-10-09T12:55:06.830Z,2104
2016-10-09T12:56:06.901Z,2208
2016-10-09T12:57:06.964Z,2356
2016-10-09T12:58:07.022Z,2788
2016-10-09T12:59:07.107Z,2768
2016-10-09T13:00:07.110Z,3064
2016-10-09T13:01:07.207Z,3660
2016-10-09T13:02:07.247Z,3676
2016-10-09T13:03:07.611Z,3240
2016-10-09T13:04:07.343Z,2792
2016-10-09T13:05:07.418Z,2704
2016-10-09T13:06:07.477Z,2816
2016-10-09T13:07:07.517Z,3552
2016-10-09T13:08:07.569Z,3024
2016-10-09T13:09:07.994Z,2844
2016-10-09T13:10:07.709Z,2508
2016-10-09T13:11:07.939Z,2036
2016-10-09T13:12:07.805Z,1748
2016-10-09T13:13:07.883Z,1664
2016-10-09T13:14:07.932Z,1692
2016-10-09T13:15:07.961Z,1824
2016-10-09T13:16:08.018Z,1776
2016-10-09T13:17:08.097Z,1516
2016-10-09T13:18:08.143Z,1356
2016-10-09T13:19:08.204Z,1324
2016-10-09T13:20:08.265Z,1292
2016-10-09T13:21:08.349Z,1264
2016-10-09T13:22:08.393Z,1228
2016-10-09T13:23:08.437Z,1224
2016-10-09T13:24:08.490Z,1220
2016-10-09T13:25:08.543Z,1236
2016-10-09T13:26:08.616Z,1220
2016-10-09T13:27:08.654Z,1160
2016-10-09T13:28:08.712Z,1172
2016-10-09T13:29:08.774Z,1188
2016-10-09T13:30:08.835Z,1224
2016-10-09T13:31:08.887Z,1188
2016-10-09T13:32:08.924Z,1096
2016-10-09T13:33:09.000Z,1048
2016-10-09T13:34:09.029Z,1060
2016-10-09T13:35:09.113Z,1048
2016-10-09T13:36:09.166Z,952
2016-10-09T13:37:09.211Z,816
2016-10-09T13:38:09.275Z,788
2016-10-09T13:39:09.356Z,860
2016-10-09T13:40:09.900Z,872
2016-10-09T13:41:09.643Z,900
2016-10-09T13:42:09.498Z,976
2016-10-09T13:43:09.761Z,992
2016-10-09T13:44:09.614Z,980
2016-10-09T13:45:09.672Z,1012
2016-10-09T13:46:09.720Z,1024
2016-10-09T13:47:09.803Z,1056
2016-10-09T13:48:09.847Z,1076
2016-10-09T13:49:09.889Z,1068
2016-10-09T13:50:09.964Z,1024
2016-10-09T13:51:10.017Z,928
2016-10-09T13:52:10.079Z,876
2016-10-09T13:53:10.141Z,880
2016-10-09T13:54:10.191Z,896
2016-10-09T13:55:10.235Z,888